createdAt,value
2022-09-07T00:00:03.727Z,66.55
2022-09-07T00:00:38.291Z,66.32
2022-09-07T00:01:11.027Z,66.43
2022-09-07T00:01:44.609Z,66.22
2022-09-07T00:02:17.199Z,65.95
2022-09-07T00:02:49.703Z,66.57
2022-09-07T00:03:24.133Z,66.82
2022-09-07T00:03:57.612Z,66.80
2022-09-07T00:04:30.263Z,66.47
2022-09-07T00:05:04.026Z,67.32
2022-09-07T00:05:42.274Z,66.80
2022-09-07T00:06:16.375Z,67.15
2022-09-07T00:06:48.841Z,67.28
2022-09-07T00:07:21.389Z,66.68
2022-09-07T00:07:53.886Z,67.65
2022-09-07T00:08:28.426Z,66.95
2022-09-07T00:09:01.483Z,67.05
2022-09-07T00:09:33.985Z,67.13
2022-09-07T00:10:08.512Z,66.75
2022-09-07T00:10:41.764Z,66.35
2022-09-07T00:11:15.822Z,67.43
2022-09-07T00:11:49.390Z,67.20
2022-09-07T00:12:21.921Z,68.97
2022-09-07T00:12:54.539Z,66.65
2022-09-07T00:13:30.769Z,69.28
2022-09-07T00:14:05.452Z,67.78
2022-09-07T00:14:38.115Z,68.10
2022-09-07T00:15:12.922Z,67.03
2022-09-07T00:15:45.572Z,66.68
2022-09-07T00:16:20.542Z,66.80
2022-09-07T00:16:54.112Z,67.40
2022-09-07T00:17:26.793Z,67.28
2022-09-07T00:17:59.441Z,66.57
2022-09-07T00:18:32.571Z,67.60
2022-09-07T00:19:06.282Z,67.18
2022-09-07T00:19:38.936Z,67.53
2022-09-07T00:20:12.750Z,66.75
2022-09-07T00:20:45.451Z,66.50
2022-09-07T00:21:19.878Z,67.82
2022-09-07T00:21:52.415Z,66.53
2022-09-07T00:22:25.238Z,67.28
2022-09-07T00:22:58.753Z,66.97
2022-09-07T00:23:32.595Z,66.97
2022-09-07T00:24:06.297Z,67.43
2022-09-07T00:24:39.073Z,67.60
2022-09-07T00:25:11.771Z,66.38
2022-09-07T00:25:45.271Z,67.75
2022-09-07T00:26:20.392Z,67.57
2022-09-07T00:26:55.605Z,67.63
2022-09-07T00:27:29.116Z,68.07
2022-09-07T00:28:01.761Z,67.22
2022-09-07T00:28:34.969Z,66.20
2022-09-07T00:29:11.596Z,67.55
2022-09-07T00:29:44.333Z,66.70
2022-09-07T00:30:16.971Z,66.70
2022-09-07T00:30:50.495Z,67.57
2022-09-07T00:31:24.095Z,67.50
2022-09-07T00:31:57.697Z,67.25
2022-09-07T00:32:30.262Z,68.65
2022-09-07T00:33:02.759Z,67.50
2022-09-07T00:33:36.311Z,67.15
2022-09-07T00:34:08.847Z,68.05
2022-09-07T00:34:41.412Z,67.78
2022-09-07T00:35:15.024Z,68.70
2022-09-07T00:35:47.492Z,66.78
2022-09-07T00:36:21.289Z,67.50
2022-09-07T00:36:55.065Z,66.90
2022-09-07T00:37:27.627Z,66.85
2022-09-07T00:38:00.230Z,67.47
2022-09-07T00:38:33.775Z,67.47
2022-09-07T00:39:06.362Z,67.78
2022-09-07T00:39:39.130Z,67.95
2022-09-07T00:40:12.916Z,67.85
2022-09-07T00:40:45.427Z,67.35
2022-09-07T00:41:20.295Z,66.10
2022-09-07T00:41:53.887Z,65.63
2022-09-07T00:42:26.397Z,65.65
2022-09-07T00:42:58.979Z,66.25
2022-09-07T00:43:34.431Z,65.13
2022-09-07T00:44:45.122Z,66.10
2022-09-07T00:45:20.296Z,66.30
2022-09-07T00:45:52.817Z,65.43
2022-09-07T00:46:28.365Z,65.45
2022-09-07T00:47:01.582Z,65.65
2022-09-07T00:47:39.625Z,66.10
2022-09-07T00:48:17.246Z,66.35
2022-09-07T00:48:53.229Z,65.60
2022-09-07T00:49:25.886Z,65.95
2022-09-07T00:50:03.710Z,65.43
2022-09-07T00:50:39.544Z,65.90
2022-09-07T00:51:17.089Z,64.97
2022-09-07T00:51:54.628Z,66.05
2022-09-07T00:52:29.259Z,65.28
2022-09-07T00:53:06.589Z,65.55
2022-09-07T00:53:44.457Z,65.50
2022-09-07T00:54:19.648Z,65.97
2022-09-07T00:54:55.756Z,65.55
2022-09-07T00:55:30.261Z,65.70
2022-09-07T00:56:04.341Z,65.30
2022-09-07T00:56:39.363Z,65.85
2022-09-07T00:57:13.171Z,65.90
2022-09-07T00:57:49.239Z,65.38
2022-09-07T00:58:23.148Z,65.45
2022-09-07T00:58:58.651Z,65.85
2022-09-07T00:59:35.345Z,66.40
2022-09-07T01:00:09.534Z,66.05
2022-09-07T01:00:47.995Z,66.95
2022-09-07T01:01:20.801Z,66.63
2022-09-07T01:01:54.624Z,67.40
2022-09-07T01:02:27.665Z,66.65
2022-09-07T01:03:01.569Z,68.07
2022-09-07T01:03:40.602Z,67.07
2022-09-07T01:04:14.272Z,67.38
2022-09-07T01:04:50.941Z,66.70
2022-09-07T01:05:30.028Z,67.70
2022-09-07T01:06:08.806Z,66.70
2022-09-07T01:06:43.345Z,67.15
2022-09-07T01:07:16.840Z,66.28
2022-09-07T01:07:49.360Z,67.65
2022-09-07T01:08:22.692Z,67.88
2022-09-07T01:09:00.537Z,67.15
2022-09-07T01:09:33.507Z,67.35
2022-09-07T01:10:08.239Z,67.32
2022-09-07T01:10:42.176Z,67.07
2022-09-07T01:11:14.665Z,67.75
2022-09-07T01:11:51.120Z,68.60
2022-09-07T01:12:24.986Z,68.32
2022-09-07T01:12:57.936Z,68.28
2022-09-07T01:13:31.088Z,68.28
2022-09-07T01:14:06.717Z,68.57
2022-09-07T01:14:43.316Z,68.03
2022-09-07T01:15:15.959Z,67.40
2022-09-07T01:16:00.199Z,67.95
2022-09-07T01:16:58.761Z,67.78
2022-09-07T01:17:42.953Z,67.10
2022-09-07T01:18:25.112Z,67.93
2022-09-07T01:19:17.779Z,67.97
2022-09-07T01:20:11.125Z,67.10
2022-09-07T01:21:04.880Z,67.10
2022-09-07T01:21:49.280Z,66.47
2022-09-07T01:22:43.689Z,66.03
2022-09-07T01:23:56.680Z,66.85
2022-09-07T01:24:41.549Z,66.55
2022-09-07T01:25:18.898Z,66.90
2022-09-07T01:26:04.848Z,67.60
2022-09-07T01:27:20.488Z,67.43
2022-09-07T01:28:10.943Z,66.68
2022-09-07T01:28:47.342Z,66.90
2022-09-07T01:29:26.106Z,66.70
2022-09-07T01:30:04.964Z,66.80
2022-09-07T01:30:39.711Z,67.00
2022-09-07T01:31:22.580Z,66.10
2022-09-07T01:32:02.915Z,66.47
2022-09-07T01:32:50.542Z,66.55
2022-09-07T01:33:48.997Z,66.93
2022-09-07T01:34:24.661Z,66.50
2022-09-07T01:34:57.823Z,67.03
2022-09-07T01:35:38.698Z,67.25
2022-09-07T01:36:21.233Z,66.80
2022-09-07T01:36:58.889Z,67.15
2022-09-07T01:37:38.903Z,66.82
2022-09-07T01:38:21.724Z,68.88
2022-09-07T01:38:58.298Z,68.88
2022-09-07T01:39:40.639Z,69.00
2022-09-07T01:40:17.960Z,70.55
2022-09-07T01:40:57.030Z,71.10
2022-09-07T01:41:35.168Z,72.05
2022-09-07T01:42:13.330Z,71.25
2022-09-07T01:42:51.650Z,72.25
2022-09-07T01:43:32.359Z,72.78
2022-09-07T01:44:08.892Z,72.07
2022-09-07T01:44:46.735Z,74.22
2022-09-07T01:45:24.644Z,74.63
2022-09-07T01:45:59.881Z,75.47
2022-09-07T01:46:36.400Z,75.70
2022-09-07T01:47:14.306Z,76.03
2022-09-07T01:47:50.375Z,73.80
2022-09-07T01:48:25.534Z,73.07
2022-09-07T01:49:04.768Z,71.38
2022-09-07T01:49:41.213Z,72.13
2022-09-07T01:50:20.093Z,71.25
2022-09-07T01:50:56.871Z,72.85
2022-09-07T01:51:33.517Z,71.38
2022-09-07T01:52:13.935Z,69.57
2022-09-07T01:52:53.923Z,69.60
2022-09-07T01:53:32.336Z,67.88
2022-09-07T01:54:09.312Z,68.68
2022-09-07T01:54:46.480Z,68.00
2022-09-07T01:55:23.356Z,66.88
2022-09-07T01:56:00.982Z,67.75
2022-09-07T01:56:39.052Z,67.20
2022-09-07T01:57:16.121Z,66.90
2022-09-07T01:57:53.815Z,66.75
2022-09-07T01:58:34.054Z,66.63
2022-09-07T01:59:14.818Z,66.05
2022-09-07T01:59:52.007Z,66.97
2022-09-07T02:00:30.744Z,66.80
2022-09-07T02:01:08.008Z,66.43
2022-09-07T02:01:45.781Z,65.90
2022-09-07T02:02:22.495Z,66.13
2022-09-07T02:03:00.238Z,65.32
2022-09-07T02:03:38.577Z,65.63
2022-09-07T02:04:16.933Z,66.18
2022-09-07T02:04:54.506Z,67.05
2022-09-07T02:05:32.068Z,66.05
2022-09-07T02:06:12.891Z,65.63
2022-09-07T02:06:48.214Z,65.82
2022-09-07T02:07:24.611Z,66.30
2022-09-07T02:08:04.184Z,65.88
2022-09-07T02:08:40.651Z,66.40
2022-09-07T02:09:18.323Z,66.07
2022-09-07T02:09:55.764Z,65.90
2022-09-07T02:10:33.443Z,67.28
2022-09-07T02:11:10.340Z,66.50
2022-09-07T02:11:46.004Z,66.47
2022-09-07T02:12:24.835Z,66.60
2022-09-07T02:13:03.402Z,66.30
2022-09-07T02:13:41.396Z,66.45
2022-09-07T02:14:19.610Z,66.07
2022-09-07T02:14:56.446Z,67.50
2022-09-07T02:15:38.341Z,66.95
2022-09-07T02:16:13.973Z,67.38
2022-09-07T02:16:53.596Z,67.25
2022-09-07T02:17:32.836Z,66.38
2022-09-07T02:18:07.823Z,66.72
2022-09-07T02:18:44.986Z,67.20
2022-09-07T02:19:21.252Z,67.20
2022-09-07T02:20:00.011Z,67.55
2022-09-07T02:20:36.027Z,67.72
2022-09-07T02:21:12.440Z,66.90
2022-09-07T02:21:50.972Z,67.03
2022-09-07T02:22:27.889Z,67.25
2022-09-07T02:23:03.248Z,65.95
2022-09-07T02:23:41.794Z,67.15
2022-09-07T02:24:20.396Z,66.20
2022-09-07T02:24:56.222Z,65.90
2022-09-07T02:25:35.190Z,65.65
2022-09-07T02:26:10.857Z,65.95
2022-09-07T02:26:48.642Z,66.30
2022-09-07T02:27:28.272Z,66.30
2022-09-07T02:28:07.879Z,65.82
2022-09-07T02:28:42.175Z,66.68
2022-09-07T02:29:15.831Z,65.65
2022-09-07T02:29:48.630Z,66.20
2022-09-07T02:30:21.098Z,65.50
2022-09-07T02:30:54.640Z,66.20
2022-09-07T02:31:27.347Z,65.78
2022-09-07T02:31:59.889Z,66.15
2022-09-07T02:32:33.380Z,66.05
2022-09-07T02:33:06.240Z,65.63
2022-09-07T02:33:38.982Z,66.00
2022-09-07T02:34:12.686Z,65.18
2022-09-07T02:34:46.128Z,65.53
2022-09-07T02:35:18.718Z,65.65
2022-09-07T02:35:52.938Z,65.32
2022-09-07T02:36:30.812Z,66.07
2022-09-07T02:37:05.688Z,66.18
2022-09-07T02:37:40.861Z,65.68
2022-09-07T02:38:13.457Z,67.07
2022-09-07T02:38:45.929Z,67.10
2022-09-07T02:39:19.810Z,66.07
2022-09-07T02:39:52.507Z,66.13
2022-09-07T02:40:25.037Z,66.05
2022-09-07T02:40:59.190Z,65.47
2022-09-07T02:41:34.976Z,66.32
2022-09-07T02:42:07.739Z,65.88
2022-09-07T02:42:41.925Z,66.55
2022-09-07T02:43:14.402Z,64.85
2022-09-07T02:43:48.614Z,64.75
2022-09-07T02:44:25.111Z,65.23
2022-09-07T02:44:58.126Z,65.38
2022-09-07T02:45:42.966Z,64.68
2022-09-07T02:46:28.136Z,65.35
2022-09-07T02:47:08.120Z,65.20
2022-09-07T02:47:58.411Z,65.20
2022-09-07T02:48:40.051Z,65.25
2022-09-07T02:49:25.358Z,66.05
2022-09-07T02:50:14.797Z,65.03
2022-09-07T02:51:05.182Z,66.47
2022-09-07T02:51:45.372Z,64.82
2022-09-07T02:52:28.447Z,64.82
2022-09-07T02:53:16.724Z,64.72
2022-09-07T02:54:06.697Z,65.00
2022-09-07T02:54:53.554Z,64.85
2022-09-07T02:55:33.710Z,65.13
2022-09-07T02:56:18.780Z,65.00
2022-09-07T02:57:04.109Z,64.65
2022-09-07T02:57:45.947Z,65.03
2022-09-07T02:58:34.254Z,64.70
2022-09-07T02:59:19.586Z,64.38
2022-09-07T03:00:02.538Z,65.35
2022-09-07T03:00:40.822Z,65.03
2022-09-07T03:01:25.807Z,64.85
2022-09-07T03:02:05.043Z,64.75
2022-09-07T03:02:46.498Z,65.00
2022-09-07T03:03:25.407Z,64.80
2022-09-07T03:04:06.637Z,65.30
2022-09-07T03:04:47.506Z,64.43
2022-09-07T03:05:25.358Z,65.30
2022-09-07T03:06:01.765Z,65.20
2022-09-07T03:06:39.263Z,65.60
2022-09-07T03:07:14.874Z,64.45
2022-09-07T03:07:53.697Z,65.15
2022-09-07T03:08:29.922Z,64.78
2022-09-07T03:09:08.514Z,64.53
2022-09-07T03:09:46.461Z,64.95
2022-09-07T03:10:19.642Z,65.35
2022-09-07T03:10:53.010Z,64.65
2022-09-07T03:11:27.378Z,65.47
2022-09-07T03:12:03.145Z,64.45
2022-09-07T03:12:47.685Z,65.13
2022-09-07T03:13:22.018Z,64.95
2022-09-07T03:14:13.901Z,64.38
2022-09-07T03:14:48.172Z,64.97
2022-09-07T03:15:23.334Z,64.53
2022-09-07T03:15:56.613Z,64.70
2022-09-07T03:16:30.160Z,65.07
2022-09-07T03:17:03.053Z,65.30
2022-09-07T03:17:35.549Z,65.00
2022-09-07T03:18:09.231Z,64.95
2022-09-07T03:18:42.842Z,64.85
2022-09-07T03:19:15.459Z,64.70
2022-09-07T03:19:48.916Z,65.70
2022-09-07T03:20:22.170Z,64.78
2022-09-07T03:20:55.458Z,64.47
2022-09-07T03:21:28.943Z,64.80
2022-09-07T03:22:01.608Z,65.07
2022-09-07T03:22:34.870Z,64.55
2022-09-07T03:23:08.773Z,64.88
2022-09-07T03:23:41.303Z,65.57
2022-09-07T03:24:13.905Z,65.47
2022-09-07T03:24:47.354Z,65.28
2022-09-07T03:25:20.135Z,64.57
2022-09-07T03:25:52.859Z,65.03
2022-09-07T03:26:25.667Z,65.32
2022-09-07T03:27:00.638Z,65.28
2022-09-07T03:27:33.654Z,64.80
2022-09-07T03:28:06.534Z,64.57
2022-09-07T03:28:40.086Z,64.82
2022-09-07T03:29:14.014Z,64.45
2022-09-07T03:29:46.622Z,64.22
2022-09-07T03:30:20.273Z,64.60
2022-09-07T03:30:52.903Z,65.18
2022-09-07T03:31:25.584Z,65.38
2022-09-07T03:31:59.191Z,64.82
2022-09-07T03:32:33.170Z,64.65
2022-09-07T03:33:06.202Z,65.10
2022-09-07T03:33:39.641Z,65.47
2022-09-07T03:34:12.648Z,64.95
2022-09-07T03:34:45.154Z,64.78
2022-09-07T03:35:18.880Z,64.70
2022-09-07T03:35:59.845Z,65.57
2022-09-07T03:36:33.911Z,65.70
2022-09-07T03:37:06.375Z,65.20
2022-09-07T03:37:39.301Z,64.53
2022-09-07T03:38:12.791Z,64.85
2022-09-07T03:38:45.673Z,64.87
2022-09-07T03:39:20.926Z,64.68
2022-09-07T03:39:54.486Z,65.50
2022-09-07T03:40:27.580Z,64.53
2022-09-07T03:41:01.392Z,64.70
2022-09-07T03:41:35.248Z,65.10
2022-09-07T03:42:07.922Z,64.85
2022-09-07T03:42:40.881Z,65.00
2022-09-07T03:43:14.343Z,65.40
2022-09-07T03:43:47.946Z,64.45
2022-09-07T03:44:21.799Z,65.18
2022-09-07T03:44:55.212Z,65.57
2022-09-07T03:45:27.683Z,64.40
2022-09-07T03:46:02.748Z,64.67
2022-09-07T03:46:36.480Z,64.20
2022-09-07T03:47:08.999Z,64.25
2022-09-07T03:47:41.634Z,64.47
2022-09-07T03:48:15.154Z,64.53
2022-09-07T03:48:48.544Z,65.10
2022-09-07T03:49:21.059Z,65.20
2022-09-07T03:49:54.516Z,64.88
2022-09-07T03:50:27.070Z,64.75
2022-09-07T03:51:00.967Z,65.22
2022-09-07T03:51:34.432Z,65.22
2022-09-07T03:52:07.044Z,65.32
2022-09-07T03:52:39.568Z,64.90
2022-09-07T03:53:13.019Z,64.70
2022-09-07T03:53:46.785Z,64.05
2022-09-07T03:54:19.258Z,64.68
2022-09-07T03:54:52.893Z,64.40
2022-09-07T03:55:25.440Z,64.70
2022-09-07T03:55:58.825Z,64.28
2022-09-07T03:56:32.432Z,64.45
2022-09-07T03:57:04.940Z,64.63
2022-09-07T03:57:37.502Z,64.85
2022-09-07T03:58:09.942Z,64.60
2022-09-07T03:58:43.511Z,64.07
2022-09-07T03:59:16.017Z,64.38
2022-09-07T03:59:50.060Z,63.90
2022-09-07T04:00:23.580Z,64.03
2022-09-07T04:00:56.239Z,64.70
2022-09-07T04:01:30.128Z,64.13
2022-09-07T04:02:02.721Z,64.40
2022-09-07T04:02:35.410Z,64.95
2022-09-07T04:03:09.043Z,64.72
2022-09-07T04:03:41.503Z,64.18
2022-09-07T04:04:15.221Z,64.90
2022-09-07T04:04:47.694Z,64.88
2022-09-07T04:05:20.146Z,64.68
2022-09-07T04:05:53.681Z,64.03
2022-09-07T04:06:26.632Z,64.97
2022-09-07T04:07:00.134Z,64.25
2022-09-07T04:07:33.133Z,64.60
2022-09-07T04:08:05.781Z,64.63
2022-09-07T04:08:40.500Z,64.82
2022-09-07T04:09:14.247Z,64.95
2022-09-07T04:09:46.705Z,64.25
2022-09-07T04:10:20.184Z,64.70
2022-09-07T04:10:52.676Z,64.50
2022-09-07T04:11:25.237Z,64.53
2022-09-07T04:11:58.739Z,64.22
2022-09-07T04:12:31.339Z,64.80
2022-09-07T04:13:03.877Z,64.20
2022-09-07T04:13:38.124Z,64.95
2022-09-07T04:14:11.681Z,64.40
2022-09-07T04:14:44.392Z,64.47
2022-09-07T04:15:19.202Z,64.70
2022-09-07T04:15:53.894Z,64.63
2022-09-07T04:16:27.650Z,64.82
2022-09-07T04:17:01.775Z,64.13
2022-09-07T04:17:34.627Z,64.28
2022-09-07T04:18:07.108Z,64.05
2022-09-07T04:18:40.920Z,64.32
2022-09-07T04:19:14.169Z,64.07
2022-09-07T04:19:46.611Z,64.57
2022-09-07T04:20:20.070Z,64.18
2022-09-07T04:20:52.702Z,64.77
2022-09-07T04:21:26.926Z,64.78
2022-09-07T04:22:00.425Z,64.55
2022-09-07T04:22:32.900Z,64.25
2022-09-07T04:23:05.411Z,65.00
2022-09-07T04:23:40.278Z,64.07
2022-09-07T04:24:12.942Z,64.90
2022-09-07T04:24:45.439Z,64.85
2022-09-07T04:25:20.473Z,64.72
2022-09-07T04:25:53.284Z,64.63
2022-09-07T04:26:28.046Z,64.53
2022-09-07T04:27:02.115Z,65.25
2022-09-07T04:27:34.680Z,64.88
2022-09-07T04:28:07.135Z,64.82
2022-09-07T04:28:40.682Z,65.05
2022-09-07T04:29:13.893Z,64.60
2022-09-07T04:29:48.160Z,65.07
2022-09-07T04:30:22.966Z,65.15
2022-09-07T04:30:55.513Z,65.10
2022-09-07T04:31:28.809Z,65.47
2022-09-07T04:32:02.548Z,64.80
2022-09-07T04:32:35.071Z,65.45
2022-09-07T04:33:07.724Z,65.40
2022-09-07T04:33:41.196Z,65.32
2022-09-07T04:34:16.490Z,64.75
2022-09-07T04:34:51.993Z,65.60
2022-09-07T04:35:24.535Z,65.68
2022-09-07T04:35:58.952Z,65.30
2022-09-07T04:36:32.863Z,65.50
2022-09-07T04:37:05.396Z,65.78
2022-09-07T04:37:37.950Z,64.72
2022-09-07T04:38:15.628Z,65.80
2022-09-07T04:38:54.097Z,65.45
2022-09-07T04:39:27.825Z,65.10
2022-09-07T04:40:00.438Z,65.82
2022-09-07T04:40:33.131Z,65.22
2022-09-07T04:41:08.322Z,65.80
2022-09-07T04:41:41.786Z,65.40
2022-09-07T04:42:14.542Z,65.88
2022-09-07T04:42:47.017Z,66.18
2022-09-07T04:43:20.456Z,65.55
2022-09-07T04:43:55.505Z,66.63
2022-09-07T04:44:28.969Z,65.40
2022-09-07T04:45:01.583Z,65.70
2022-09-07T04:45:36.950Z,65.70
2022-09-07T04:46:17.236Z,66.13
2022-09-07T04:46:49.834Z,65.93
2022-09-07T04:47:22.322Z,66.05
2022-09-07T04:47:55.791Z,65.50
2022-09-07T04:48:28.426Z,66.63
2022-09-07T04:49:03.206Z,66.03
2022-09-07T04:49:36.747Z,65.53
2022-09-07T04:50:10.043Z,66.25
2022-09-07T04:50:42.521Z,65.60
2022-09-07T04:51:16.089Z,65.88
2022-09-07T04:51:49.654Z,65.70
2022-09-07T04:52:22.113Z,66.15
2022-09-07T04:52:54.588Z,65.80
2022-09-07T04:53:28.011Z,65.53
2022-09-07T04:54:02.369Z,65.80
2022-09-07T04:54:35.846Z,65.68
2022-09-07T04:55:09.051Z,65.07
2022-09-07T04:55:41.597Z,65.03
2022-09-07T04:56:17.091Z,65.72
2022-09-07T04:56:49.644Z,65.53
2022-09-07T04:57:25.859Z,65.10
2022-09-07T04:57:58.334Z,66.00
2022-09-07T04:58:31.751Z,65.43
2022-09-07T04:59:05.690Z,65.68
2022-09-07T04:59:38.237Z,64.93
2022-09-07T05:00:11.799Z,65.70
2022-09-07T05:00:45.719Z,65.03
2022-09-07T05:01:21.836Z,65.93
2022-09-07T05:01:54.485Z,65.88
2022-09-07T05:02:27.111Z,65.28
2022-09-07T05:03:00.714Z,64.93
2022-09-07T05:03:35.943Z,65.28
2022-09-07T05:04:08.421Z,65.43
2022-09-07T05:04:42.069Z,65.63
2022-09-07T05:05:14.865Z,65.82
2022-09-07T05:05:47.374Z,65.68
2022-09-07T05:06:21.339Z,65.50
2022-09-07T05:06:55.180Z,65.30
2022-09-07T05:07:27.817Z,65.43
2022-09-07T05:08:00.309Z,65.88
2022-09-07T05:08:38.014Z,65.60
2022-09-07T05:09:11.160Z,66.07
2022-09-07T05:09:43.725Z,65.60
2022-09-07T05:10:17.361Z,66.40
2022-09-07T05:10:52.751Z,65.55
2022-09-07T05:11:29.548Z,65.63
2022-09-07T05:12:02.921Z,65.53
2022-09-07T05:12:35.393Z,65.32
2022-09-07T05:13:08.859Z,65.80
2022-09-07T05:13:41.862Z,66.13
2022-09-07T05:14:14.359Z,65.45
2022-09-07T05:14:47.885Z,65.22
2022-09-07T05:15:20.377Z,65.28
2022-09-07T05:15:54.257Z,65.00
2022-09-07T05:16:28.698Z,65.47
2022-09-07T05:17:01.273Z,65.20
2022-09-07T05:17:33.824Z,65.88
2022-09-07T05:18:07.329Z,66.03
2022-09-07T05:18:39.826Z,66.05
2022-09-07T05:19:13.287Z,66.07
2022-09-07T05:19:46.901Z,66.13
2022-09-07T05:20:21.092Z,65.78
2022-09-07T05:20:53.717Z,65.85
2022-09-07T05:21:29.189Z,67.00
2022-09-07T05:22:01.719Z,66.00
2022-09-07T05:22:35.589Z,65.20
2022-09-07T05:23:09.413Z,66.00
2022-09-07T05:23:42.517Z,65.13
2022-09-07T05:24:15.181Z,65.25
2022-09-07T05:24:49.261Z,65.45
2022-09-07T05:25:21.753Z,65.43
2022-09-07T05:25:54.250Z,65.95
2022-09-07T05:26:30.727Z,65.53
2022-09-07T05:27:03.868Z,65.45
2022-09-07T05:27:37.351Z,65.40
2022-09-07T05:28:09.860Z,65.80
2022-09-07T05:28:42.988Z,65.60
2022-09-07T05:31:49.376Z,66.47
2022-09-07T05:32:22.011Z,65.63
2022-09-07T05:32:55.678Z,65.30
2022-09-07T05:34:29.513Z,65.20
2022-09-07T05:35:02.623Z,65.28
2022-09-07T05:35:36.201Z,65.40
2022-09-07T05:36:09.117Z,65.53
2022-09-07T05:36:41.627Z,66.00
2022-09-07T05:37:15.093Z,66.40
2022-09-07T05:37:50.549Z,65.70
2022-09-07T05:38:23.049Z,65.20
2022-09-07T05:38:58.555Z,65.25
2022-09-07T05:39:31.903Z,64.35
2022-09-07T05:40:07.023Z,64.88
2022-09-07T05:40:40.804Z,65.68
2022-09-07T05:41:15.226Z,65.53
2022-09-07T05:41:48.736Z,64.82
2022-09-07T05:42:21.275Z,64.90
2022-09-07T05:42:54.698Z,64.90
2022-09-07T05:43:27.227Z,64.55
2022-09-07T05:44:54.033Z,64.57
2022-09-07T05:45:26.659Z,64.60
2022-09-07T05:45:59.321Z,64.53
2022-09-07T05:46:34.204Z,64.53
2022-09-07T05:47:07.059Z,64.85
2022-09-07T05:47:40.485Z,64.53
2022-09-07T05:48:12.941Z,64.82
2022-09-07T05:48:46.014Z,65.47
2022-09-07T05:49:19.659Z,64.80
2022-09-07T05:49:54.014Z,64.72
2022-09-07T05:50:30.273Z,64.53
2022-09-07T05:51:03.171Z,64.75
2022-09-07T05:51:37.056Z,64.40
2022-09-07T05:52:10.586Z,64.60
2022-09-07T05:52:43.091Z,64.35
2022-09-07T05:53:15.556Z,64.88
2022-09-07T05:53:49.087Z,64.93
2022-09-07T05:54:21.552Z,64.95
2022-09-07T05:55:07.402Z,64.50
2022-09-07T05:55:47.626Z,64.50
2022-09-07T05:56:21.106Z,64.90
2022-09-07T05:56:53.576Z,65.15
2022-09-07T05:57:26.230Z,65.22
2022-09-07T05:57:59.681Z,65.00
2022-09-07T05:58:32.851Z,64.97
2022-09-07T05:59:05.395Z,65.78
2022-09-07T05:59:38.841Z,65.35
2022-09-07T06:00:14.326Z,65.85
2022-09-07T06:00:47.482Z,65.43
2022-09-07T06:01:20.910Z,66.00
2022-09-07T06:01:54.819Z,67.13
2022-09-07T06:02:27.346Z,65.75
2022-09-07T06:03:00.977Z,66.20
2022-09-07T06:03:33.821Z,66.80
2022-09-07T06:04:07.396Z,66.95
2022-09-07T06:04:39.874Z,66.95
2022-09-07T06:05:12.396Z,67.25
2022-09-07T06:05:45.898Z,67.07
2022-09-07T06:06:19.336Z,67.63
2022-09-07T06:07:20.140Z,67.85
2022-09-07T06:07:48.890Z,67.57
2022-09-07T06:08:21.612Z,67.43
2022-09-07T06:08:54.760Z,67.53
2022-09-07T06:09:30.508Z,68.18
2022-09-07T06:10:56.815Z,68.78
2022-09-07T06:11:29.286Z,68.03
2022-09-07T06:12:05.348Z,67.90
2022-09-07T06:12:38.852Z,68.47
2022-09-07T06:13:11.348Z,68.05
2022-09-07T06:13:43.827Z,68.70
2022-09-07T06:14:17.252Z,68.63
2022-09-07T06:14:49.760Z,68.20
2022-09-07T06:15:23.173Z,68.38
2022-09-07T06:15:59.508Z,68.38
2022-09-07T06:16:34.919Z,67.82
2022-09-07T06:17:09.874Z,68.38
2022-09-07T06:17:42.336Z,68.43
2022-09-07T06:18:16.036Z,69.18
2022-09-07T06:18:49.768Z,70.25
2022-09-07T06:19:23.215Z,68.25
2022-09-07T06:19:55.694Z,69.13
2022-09-07T06:20:28.242Z,68.55
2022-09-07T06:21:04.365Z,67.85
2022-09-07T06:21:38.146Z,69.27
2022-09-07T06:22:10.615Z,68.68
2022-09-07T06:22:44.164Z,68.45
2022-09-07T06:23:16.632Z,68.40
2022-09-07T06:23:49.811Z,69.38
2022-09-07T06:24:23.592Z,68.30
2022-09-07T06:24:56.039Z,68.45
2022-09-07T06:25:28.585Z,68.95
2022-09-07T06:26:02.554Z,68.80
2022-09-07T06:26:35.008Z,68.68
2022-09-07T06:27:07.591Z,68.68
2022-09-07T06:27:41.137Z,68.85
2022-09-07T06:28:13.690Z,69.10
2022-09-07T06:28:49.827Z,68.60
2022-09-07T06:29:24.368Z,68.85
2022-09-07T06:29:57.125Z,68.80
2022-09-07T06:30:29.647Z,68.65
2022-09-07T06:31:03.762Z,67.90
2022-09-07T06:32:46.017Z,68.10
2022-09-07T06:33:22.015Z,69.00
2022-09-07T06:33:55.762Z,68.50
2022-09-07T06:34:28.224Z,68.35
2022-09-07T06:35:01.754Z,68.55
2022-09-07T06:35:34.232Z,68.22
2022-09-07T06:36:11.742Z,68.65
2022-09-07T06:36:44.239Z,68.55
2022-09-07T06:37:16.760Z,68.75
2022-09-07T06:37:50.279Z,68.50
2022-09-07T06:38:23.004Z,69.28
2022-09-07T06:38:56.455Z,68.13
2022-09-07T06:39:29.935Z,68.20
2022-09-07T06:40:03.180Z,68.20
2022-09-07T06:40:35.816Z,69.32
2022-09-07T06:42:05.329Z,69.15
2022-09-07T06:42:38.471Z,69.03
2022-09-07T06:43:11.929Z,68.75
2022-09-07T06:43:46.127Z,68.90
2022-09-07T06:44:18.888Z,68.90
2022-09-07T06:44:52.464Z,69.03
2022-09-07T06:45:25.351Z,68.35
2022-09-07T06:47:06.715Z,68.83
2022-09-07T06:47:41.610Z,68.53
2022-09-07T06:48:14.056Z,68.60
2022-09-07T06:48:46.555Z,68.85
2022-09-07T06:49:20.184Z,69.38
2022-09-07T06:49:52.666Z,69.38
2022-09-07T06:50:27.742Z,69.65
2022-09-07T06:51:03.722Z,69.97
2022-09-07T06:51:36.333Z,69.55
2022-09-07T06:52:08.845Z,68.70
2022-09-07T06:53:38.521Z,69.07
2022-09-07T06:55:07.321Z,68.72
2022-09-07T06:55:45.150Z,68.80
2022-09-07T06:56:19.299Z,69.28
2022-09-07T06:56:52.910Z,69.75
2022-09-07T06:57:27.021Z,68.47
2022-09-07T06:57:59.598Z,68.10
2022-09-07T06:58:33.348Z,68.85
2022-09-07T06:59:05.899Z,69.85
2022-09-07T06:59:39.439Z,67.85
2022-09-07T07:00:14.027Z,68.60
2022-09-07T07:00:46.814Z,68.35
2022-09-07T07:01:20.647Z,68.43
2022-09-07T07:01:54.106Z,68.50
2022-09-07T07:02:26.584Z,69.30
2022-09-07T07:03:01.496Z,68.50
2022-09-07T07:03:34.111Z,68.57
2022-09-07T07:04:06.872Z,68.65
2022-09-07T07:04:41.314Z,68.30
2022-09-07T07:05:14.214Z,68.70
2022-09-07T07:05:53.658Z,68.95
2022-09-07T07:06:34.552Z,68.53
2022-09-07T07:07:09.535Z,68.20
2022-09-07T07:07:43.100Z,69.60
2022-09-07T07:08:15.582Z,69.32
2022-09-07T07:08:49.199Z,68.30
2022-09-07T07:09:21.770Z,68.43
2022-09-07T07:09:54.223Z,68.63
2022-09-07T07:10:27.890Z,68.38
2022-09-07T07:11:02.828Z,68.10
2022-09-07T07:11:37.189Z,68.72
2022-09-07T07:12:11.028Z,68.38
2022-09-07T07:13:48.003Z,67.22
2022-09-07T07:14:21.148Z,67.50
2022-09-07T07:14:54.670Z,67.60
2022-09-07T07:15:28.576Z,68.03
2022-09-07T07:16:05.867Z,68.75
2022-09-07T07:16:39.477Z,68.18
2022-09-07T07:17:12.100Z,67.90
2022-09-07T07:17:46.917Z,68.25
2022-09-07T07:18:24.054Z,67.90
2022-09-07T07:18:57.109Z,68.20
2022-09-07T07:19:29.548Z,68.10
2022-09-07T07:20:03.222Z,67.85
2022-09-07T07:20:36.108Z,67.32
2022-09-07T07:21:10.434Z,67.50
2022-09-07T07:22:07.989Z,68.00
2022-09-07T07:22:46.723Z,67.80
2022-09-07T07:23:20.564Z,67.85
2022-09-07T07:23:53.864Z,67.07
2022-09-07T07:24:26.482Z,66.68
2022-09-07T07:25:00.091Z,66.97
2022-09-07T07:25:34.442Z,66.90
2022-09-07T07:26:09.304Z,67.13
2022-09-07T07:26:43.938Z,67.53
2022-09-07T07:27:16.627Z,66.95
2022-09-07T07:27:50.847Z,66.75
2022-09-07T07:29:22.759Z,66.35
2022-09-07T07:29:56.485Z,66.40
2022-09-07T07:30:29.669Z,66.40
2022-09-07T07:31:09.783Z,65.95
2022-09-07T07:31:43.091Z,66.20
2022-09-07T07:32:15.845Z,67.13
2022-09-07T07:32:49.622Z,66.40
2022-09-07T07:33:29.120Z,66.00
2022-09-07T07:34:39.531Z,66.38
2022-09-07T07:35:12.734Z,66.33
2022-09-07T07:35:45.176Z,66.20
2022-09-07T07:36:20.268Z,66.38
2022-09-07T07:36:55.251Z,65.93
2022-09-07T07:37:28.420Z,66.28
2022-09-07T07:40:27.692Z,66.05
2022-09-07T07:42:00.247Z,66.20
2022-09-07T07:42:36.278Z,66.25
2022-09-07T07:43:08.672Z,65.68
2022-09-07T07:43:42.447Z,66.05
2022-09-07T07:44:14.883Z,65.95
2022-09-07T07:44:48.698Z,66.57
2022-09-07T07:46:15.966Z,65.90
2022-09-07T07:46:49.289Z,66.25
2022-09-07T07:47:21.934Z,65.88
2022-09-07T07:47:55.436Z,65.68
2022-09-07T07:48:29.513Z,65.75
2022-09-07T07:49:02.021Z,66.43
2022-09-07T07:49:35.446Z,66.30
2022-09-07T07:51:09.925Z,66.30